Time;durP1;ratioP1;P1;durP2;ratioP2;P2;SDS_P1;SDS_P2;PMS_P1;PMS_P2;Temp;Humidity;BMP_temperature;BMP_pressure;BME280_temperature;BME280_humidity;BME280_pressure;Samples;Min_cycle;Max_cycle;Signal;HPM_P1;HPM_P2
2022/03/05 00:00:53;;;;;;;35.10;14.70;;;1.00;99.90;;;;;;5022882;28;20355;-85
2022/03/05 00:03:18;;;;;;;33.72;13.55;;;1.00;99.90;;;;;;5023360;28;20490;-85
2022/03/05 00:05:44;;;;;;;32.65;13.40;;;0.90;99.90;;;;;;5028565;28;20025;-85
2022/03/05 00:08:10;;;;;;;34.58;13.85;;;0.90;99.90;;;;;;5034987;28;20026;-84
2022/03/05 00:10:37;;;;;;;36.38;13.68;;;0.90;99.90;;;;;;5036512;28;20112;-86
2022/03/05 00:13:02;;;;;;;37.22;14.52;;;0.90;99.90;;;;;;5029801;28;20520;-85
2022/03/05 00:15:28;;;;;;;36.60;14.60;;;0.80;99.90;;;;;;5035922;28;20100;-85
2022/03/05 00:17:55;;;;;;;31.90;12.90;;;0.80;99.90;;;;;;5029979;28;20038;-85
2022/03/05 00:20:22;;;;;;;31.02;13.68;;;0.70;99.90;;;;;;5033980;28;20033;-85
2022/03/05 00:22:52;;;;;;;34.80;13.82;;;0.70;99.90;;;;;;5035288;28;20049;-84
2022/03/05 00:25:18;;;;;;;29.33;12.90;;;0.70;99.90;;;;;;5035285;28;20037;-85
2022/03/05 00:27:43;;;;;;;34.17;12.63;;;0.70;99.90;;;;;;5031107;28;20033;-85
2022/03/05 00:30:09;;;;;;;33.97;13.93;;;0.60;99.90;;;;;;5032658;28;20040;-84
2022/03/05 00:32:35;;;;;;;36.13;15.02;;;0.50;99.90;;;;;;5035380;28;20025;-84
2022/03/05 00:35:00;;;;;;;34.65;13.02;;;0.60;99.90;;;;;;5035006;28;20045;-84
2022/03/05 00:37:26;;;;;;;36.50;14.77;;;0.50;99.90;;;;;;5033560;28;20022;-84
2022/03/05 00:39:52;;;;;;;34.38;14.27;;;0.50;99.90;;;;;;5034891;28;20041;-85
2022/03/05 00:42:17;;;;;;;41.03;14.77;;;0.40;99.90;;;;;;5026277;28;20417;-84
2022/03/05 00:44:43;;;;;;;37.20;13.82;;;0.40;99.90;;;;;;5019881;28;20060;-85
2022/03/05 00:47:09;;;;;;;30.83;13.60;;;0.30;99.90;;;;;;5028685;28;20053;-85
2022/03/05 00:49:35;;;;;;;33.95;14.82;;;0.30;99.90;;;;;;5033661;28;20493;-84
2022/03/05 00:52:01;;;;;;;33.80;13.65;;;0.30;99.90;;;;;;5034657;28;20021;-84
2022/03/05 00:54:26;;;;;;;40.13;14.05;;;0.30;99.90;;;;;;5033929;28;20036;-84
2022/03/05 00:56:52;;;;;;;35.58;14.35;;;0.30;99.90;;;;;;5021618;28;20140;-85
2022/03/05 00:59:17;;;;;;;38.00;13.55;;;0.20;99.90;;;;;;5034253;28;20033;-85
2022/03/05 01:01:43;;;;;;;42.03;14.65;;;0.20;99.90;;;;;;5035291;28;20022;-85
2022/03/05 01:04:09;;;;;;;37.47;13.15;;;0.20;99.90;;;;;;5034368;28;20041;-84
2022/03/05 01:06:35;;;;;;;35.80;13.63;;;0.10;99.90;;;;;;5032813;28;20029;-85
2022/03/05 01:09:02;;;;;;;34.95;13.77;;;0.10;99.90;;;;;;5031471;28;20497;-85
2022/03/05 01:11:28;;;;;;;32.13;13.43;;;0.00;99.90;;;;;;5035322;28;20060;-83
2022/03/05 01:13:54;;;;;;;36.83;12.60;;;0.00;99.90;;;;;;5018309;28;20134;-85
2022/03/05 01:16:19;;;;;;;35.25;13.45;;;-0.10;99.90;;;;;;5034762;28;20037;-83
2022/03/05 01:18:45;;;;;;;41.25;15.05;;;-0.10;99.90;;;;;;5026815;28;20030;-84
2022/03/05 01:21:11;;;;;;;36.65;14.10;;;-0.10;99.90;;;;;;5027426;28;20037;-85
2022/03/05 01:23:36;;;;;;;33.95;13.23;;;-0.20;99.90;;;;;;5017493;28;20573;-84
2022/03/05 01:26:02;;;;;;;35.00;14.13;;;-0.20;99.90;;;;;;5015981;28;20044;-84
2022/03/05 01:28:28;;;;;;;36.75;14.13;;;-0.20;99.90;;;;;;5026438;28;20093;-84
2022/03/05 01:30:54;;;;;;;39.65;14.70;;;-0.30;99.90;;;;;;5033154;28;20121;-85
2022/03/05 01:33:20;;;;;;;33.42;11.95;;;-0.30;99.90;;;;;;5034659;28;20485;-84
2022/03/05 01:35:48;;;;;;;36.25;14.25;;;-0.30;99.90;;;;;;5021343;28;20045;-84
2022/03/05 01:38:14;;;;;;;40.33;15.25;;;-0.30;99.90;;;;;;5030332;28;20022;-84
2022/03/05 01:40:40;;;;;;;41.95;17.23;;;-0.40;99.90;;;;;;5034886;28;20034;-85
2022/03/05 01:43:06;;;;;;;36.30;13.77;;;-0.40;99.90;;;;;;5023888;28;20128;-85
2022/03/05 01:45:32;;;;;;;42.70;13.32;;;-0.40;99.90;;;;;;5022211;28;20021;-83
2022/03/05 01:47:58;;;;;;;35.83;13.75;;;-0.40;99.90;;;;;;5021912;28;20048;-84
2022/03/05 01:50:25;;;;;;;40.05;14.95;;;-0.40;99.90;;;;;;5034988;28;20029;-85
2022/03/05 01:52:50;;;;;;;41.70;16.75;;;-0.50;99.90;;;;;;5032688;28;20033;-84
2022/03/05 01:55:16;;;;;;;39.40;14.70;;;-0.50;99.90;;;;;;5029590;28;20157;-85
2022/03/05 01:57:42;;;;;;;39.03;13.88;;;-0.50;99.90;;;;;;5022793;28;20030;-84
2022/03/05 02:00:10;;;;;;;39.03;15.20;;;-0.50;99.90;;;;;;5031574;28;20025;-85
2022/03/05 02:02:36;;;;;;;44.78;16.00;;;-0.60;99.90;;;;;;5033090;28;20091;-84
2022/03/05 02:05:02;;;;;;;42.42;15.43;;;-0.60;99.90;;;;;;5033557;28;20033;-84
2022/03/05 02:07:28;;;;;;;37.10;14.23;;;-0.60;99.90;;;;;;5032043;28;20021;-84
2022/03/05 02:09:54;;;;;;;41.03;14.10;;;-0.60;99.90;;;;;;5033488;28;20029;-84
2022/03/05 02:12:29;;;;;;;37.80;16.05;;;-0.70;99.90;;;;;;5033683;28;20686;-85
2022/03/05 02:14:55;;;;;;;35.92;13.70;;;-0.70;99.90;;;;;;5023224;28;20041;-85
2022/03/05 02:17:21;;;;;;;39.90;14.18;;;-0.60;99.90;;;;;;5022316;28;20021;-84
2022/03/05 02:19:47;;;;;;;42.10;16.30;;;-0.70;99.90;;;;;;5020373;28;20133;-84
2022/03/05 02:22:12;;;;;;;36.95;14.40;;;-0.70;99.90;;;;;;5029044;28;20060;-85
2022/03/05 02:24:39;;;;;;;39.45;14.82;;;-0.70;99.90;;;;;;5033807;28;20044;-84
2022/03/05 02:27:05;;;;;;;37.15;14.55;;;-0.80;99.90;;;;;;5024687;28;20079;-84
2022/03/05 02:29:31;;;;;;;38.22;13.43;;;-0.80;99.90;;;;;;5033742;28;20030;-83
2022/03/05 02:31:57;;;;;;;37.78;15.75;;;-0.80;99.90;;;;;;5016998;28;20048;-84
2022/03/05 02:34:23;;;;;;;44.60;16.58;;;-0.80;99.90;;;;;;5033645;28;20371;-84
2022/03/05 02:36:49;;;;;;;42.30;15.82;;;-0.80;99.90;;;;;;5024717;28;21634;-85
2022/03/05 02:39:15;;;;;;;37.88;14.80;;;-0.90;99.90;;;;;;5033344;28;20109;-84
2022/03/05 02:41:40;;;;;;;44.25;16.33;;;-0.90;99.90;;;;;;5030461;28;20446;-84
2022/03/05 02:44:06;;;;;;;38.13;14.68;;;-0.90;99.90;;;;;;5018141;28;20041;-84
2022/03/05 02:46:34;;;;;;;36.42;13.73;;;-1.00;99.90;;;;;;5029159;28;20084;-84
2022/03/05 02:49:00;;;;;;;45.90;17.33;;;-1.00;99.90;;;;;;5032470;28;20028;-84
2022/03/05 02:51:25;;;;;;;36.65;14.52;;;-1.00;99.90;;;;;;5033042;28;20037;-84
2022/03/05 02:53:51;;;;;;;38.45;14.07;;;-1.00;99.90;;;;;;5031783;28;20076;-85
2022/03/05 02:56:16;;;;;;;37.85;14.73;;;-1.10;99.90;;;;;;5022700;28;20037;-84
2022/03/05 02:58:42;;;;;;;41.40;15.30;;;-1.10;99.90;;;;;;5029313;28;20037;-85
2022/03/05 03:01:08;;;;;;;44.85;15.07;;;-1.10;99.90;;;;;;5021100;28;20072;-84
2022/03/05 03:03:34;;;;;;;43.60;15.55;;;-1.10;99.90;;;;;;5028752;28;20547;-84
2022/03/05 03:05:59;;;;;;;50.00;17.30;;;-1.10;99.90;;;;;;5024586;28;20037;-84
2022/03/05 03:08:25;;;;;;;48.67;18.75;;;-1.10;99.90;;;;;;5031961;28;20065;-84
2022/03/05 03:10:50;;;;;;;48.42;17.20;;;-1.10;99.90;;;;;;5028399;28;20033;-84
2022/03/05 03:13:16;;;;;;;45.40;16.52;;;-1.10;99.90;;;;;;5033177;28;20046;-84
2022/03/05 03:15:41;;;;;;;49.58;17.00;;;-1.10;99.90;;;;;;5034763;28;20032;-84
2022/03/05 03:18:07;;;;;;;44.17;15.70;;;-1.10;99.90;;;;;;5036294;28;20044;-84
2022/03/05 03:20:32;;;;;;;39.45;15.27;;;-1.10;99.90;;;;;;5037309;28;20033;-84
2022/03/05 03:22:58;;;;;;;46.72;17.27;;;-1.10;99.90;;;;;;5036913;28;20049;-84
2022/03/05 03:25:24;;;;;;;52.40;18.38;;;-1.10;99.90;;;;;;5035203;28;20034;-84
2022/03/05 03:27:50;;;;;;;44.20;17.00;;;-1.10;99.90;;;;;;5036487;28;20036;-84
2022/03/05 03:30:17;;;;;;;45.72;17.40;;;-1.10;99.90;;;;;;5035524;28;20029;-85
2022/03/05 03:32:43;;;;;;;49.92;16.75;;;-1.20;99.90;;;;;;5034819;28;20036;-84
2022/03/05 03:35:10;;;;;;;42.97;16.80;;;-1.20;99.90;;;;;;5021184;28;20064;-84
2022/03/05 03:37:36;;;;;;;54.65;18.50;;;-1.10;99.90;;;;;;5036441;28;20052;-85
2022/03/05 03:40:05;;;;;;;45.15;15.50;;;-1.20;99.90;;;;;;5035448;28;20385;-85
2022/03/05 03:42:30;;;;;;;48.20;17.23;;;-1.20;99.90;;;;;;5025104;28;20108;-85
2022/03/05 03:44:56;;;;;;;46.30;16.98;;;-1.20;99.90;;;;;;5035156;28;20038;-85
2022/03/05 03:47:23;;;;;;;49.28;17.48;;;-1.20;99.90;;;;;;5035002;28;20049;-85
2022/03/05 03:49:48;;;;;;;54.15;18.95;;;-1.30;99.90;;;;;;5016485;28;20449;-84
2022/03/05 03:52:14;;;;;;;44.28;16.85;;;-1.30;99.90;;;;;;5034308;28;20025;-84
2022/03/05 03:54:42;;;;;;;54.33;19.45;;;-1.30;99.90;;;;;;5030960;28;20057;-84
2022/03/05 03:57:07;;;;;;;50.50;17.98;;;-1.20;99.90;;;;;;5023021;28;20033;-84
2022/03/05 03:59:33;;;;;;;50.97;19.35;;;-1.20;99.90;;;;;;5025725;28;20026;-84
2022/03/05 04:01:58;;;;;;;48.15;17.92;;;-1.30;99.90;;;;;;5021216;28;20026;-84
2022/03/05 04:04:24;;;;;;;46.20;18.35;;;-1.20;99.90;;;;;;5032346;28;20033;-84
2022/03/05 04:09:35;;;;;;;53.03;20.38;;;-1.30;99.90;;;;;;5033622;28;20080;-84
2022/03/05 04:12:00;;;;;;;51.67;17.73;;;-1.30;99.90;;;;;;5032255;28;20088;-84
2022/03/05 04:14:26;;;;;;;54.33;17.58;;;-1.30;99.90;;;;;;5035872;28;20173;-83
2022/03/05 04:16:51;;;;;;;50.30;18.50;;;-1.30;99.90;;;;;;5034227;28;20099;-84
2022/03/05 04:19:17;;;;;;;58.90;19.95;;;-1.30;99.90;;;;;;5036205;28;20052;-84
2022/03/05 04:21:42;;;;;;;52.55;18.10;;;-1.30;99.90;;;;;;5035526;28;20037;-84
2022/03/05 04:24:08;;;;;;;52.45;18.48;;;-1.30;99.90;;;;;;5034601;28;20052;-83
2022/03/05 04:26:34;;;;;;;52.45;17.38;;;-1.30;99.90;;;;;;5035181;28;20409;-84
2022/03/05 04:28:59;;;;;;;55.88;19.10;;;-1.30;99.90;;;;;;5034674;28;20025;-82
2022/03/05 04:31:25;;;;;;;59.42;19.58;;;-1.30;99.90;;;;;;5034763;28;20504;-82
2022/03/05 04:33:50;;;;;;;50.58;18.80;;;-1.30;99.90;;;;;;5027212;28;20076;-82
2022/03/05 04:36:16;;;;;;;57.65;20.73;;;-1.30;99.90;;;;;;5021261;28;20030;-84
2022/03/05 04:38:41;;;;;;;54.22;19.98;;;-1.30;99.90;;;;;;5035354;28;20053;-84
2022/03/05 04:41:07;;;;;;;54.70;20.38;;;-1.30;99.90;;;;;;5026710;28;20022;-83
2022/03/05 04:43:33;;;;;;;55.97;19.80;;;-1.30;99.90;;;;;;5026281;28;20192;-83
2022/03/05 04:45:58;;;;;;;59.60;21.73;;;-1.30;99.90;;;;;;5019446;28;20677;-84
2022/03/05 04:48:24;;;;;;;52.78;18.05;;;-1.40;99.90;;;;;;5023517;28;20539;-84
2022/03/05 04:50:50;;;;;;;55.13;19.88;;;-1.40;99.90;;;;;;5035084;28;20112;-84
2022/03/05 04:53:15;;;;;;;60.22;20.88;;;-1.40;99.90;;;;;;5035456;28;20037;-84
2022/03/05 04:55:42;;;;;;;57.25;19.90;;;-1.40;99.90;;;;;;5035277;28;20029;-83
2022/03/05 04:58:07;;;;;;;63.30;20.33;;;-1.40;99.90;;;;;;5033747;28;20485;-84
2022/03/05 05:00:33;;;;;;;61.58;21.73;;;-1.40;99.90;;;;;;5027883;28;20032;-84
2022/03/05 05:02:58;;;;;;;52.90;19.63;;;-1.40;99.90;;;;;;5027484;28;20033;-83
2022/03/05 05:05:24;;;;;;;55.25;21.38;;;-1.40;99.90;;;;;;5032274;28;20049;-83
2022/03/05 05:07:50;;;;;;;59.63;20.80;;;-1.40;99.90;;;;;;5024252;28;20171;-83
2022/03/05 05:10:15;;;;;;;62.55;21.02;;;-1.40;99.90;;;;;;5035219;28;20036;-82
2022/03/05 05:12:42;;;;;;;59.80;22.45;;;-1.50;99.90;;;;;;5028538;28;20030;-82
2022/03/05 05:15:08;;;;;;;66.20;23.02;;;-1.50;99.90;;;;;;5031303;28;20057;-81
2022/03/05 05:17:35;;;;;;;59.80;20.98;;;-1.50;99.90;;;;;;5031689;28;20021;-82
2022/03/05 05:20:02;;;;;;;59.42;20.15;;;-1.50;99.90;;;;;;5033061;28;20561;-82
2022/03/05 05:22:29;;;;;;;63.20;21.27;;;-1.50;99.90;;;;;;5025439;28;20520;-82
2022/03/05 05:24:55;;;;;;;58.70;20.02;;;-1.60;99.90;;;;;;5030273;28;20156;-82
2022/03/05 05:27:20;;;;;;;57.03;18.65;;;-1.60;99.90;;;;;;5019441;28;20120;-82
2022/03/05 05:29:46;;;;;;;57.00;21.02;;;-1.60;99.90;;;;;;5033688;28;20029;-82
2022/03/05 05:32:12;;;;;;;56.53;19.42;;;-1.60;99.90;;;;;;5026265;28;20049;-82
2022/03/05 05:34:38;;;;;;;66.55;20.25;;;-1.60;99.90;;;;;;5034497;28;20111;-82
2022/03/05 05:37:04;;;;;;;50.35;18.33;;;-1.70;99.90;;;;;;5034138;28;20033;-83
2022/03/05 05:39:29;;;;;;;56.20;19.02;;;-1.70;99.90;;;;;;5033549;28;20030;-82
2022/03/05 05:41:55;;;;;;;57.25;20.02;;;-1.70;99.90;;;;;;5032213;28;20037;-82
2022/03/05 05:44:21;;;;;;;61.00;20.73;;;-1.70;99.90;;;;;;5021218;28;20037;-82
2022/03/05 05:46:46;;;;;;;63.47;20.25;;;-1.70;99.90;;;;;;5030170;28;20492;-83
2022/03/05 05:49:12;;;;;;;57.97;19.73;;;-1.70;99.90;;;;;;5034565;28;20056;-83
2022/03/05 05:51:37;;;;;;;58.97;19.35;;;-1.80;99.90;;;;;;5034169;28;20017;-82
2022/03/05 05:54:03;;;;;;;66.95;21.30;;;-1.80;99.90;;;;;;5024480;28;20037;-83
2022/03/05 05:56:28;;;;;;;57.72;21.10;;;-1.80;99.90;;;;;;5033995;28;20032;-83
2022/03/05 05:58:56;;;;;;;62.10;21.60;;;-1.80;99.90;;;;;;5030744;28;20381;-82
2022/03/05 06:01:22;;;;;;;57.58;19.23;;;-1.90;99.90;;;;;;5033263;28;20013;-82
2022/03/05 06:03:49;;;;;;;65.00;20.30;;;-1.90;99.90;;;;;;5028902;28;20383;-82
2022/03/05 06:06:16;;;;;;;52.33;17.60;;;-1.90;99.90;;;;;;5025285;28;20045;-81
2022/03/05 06:08:42;;;;;;;58.55;20.85;;;-1.90;99.90;;;;;;5029499;28;20033;-82
2022/03/05 06:11:07;;;;;;;55.03;20.63;;;-1.90;99.90;;;;;;5033846;28;20037;-83
2022/03/05 06:13:33;;;;;;;57.72;20.00;;;-1.90;99.90;;;;;;5032330;28;20037;-82
2022/03/05 06:15:58;;;;;;;62.03;19.67;;;-1.90;99.90;;;;;;5031057;28;20029;-83
2022/03/05 06:18:24;;;;;;;58.42;19.55;;;-1.90;99.90;;;;;;5033961;28;20429;-83
2022/03/05 06:20:50;;;;;;;61.70;20.95;;;-1.90;99.90;;;;;;5032253;28;20528;-83
2022/03/05 06:23:17;;;;;;;60.55;20.73;;;-1.90;99.90;;;;;;5033505;28;20100;-83
2022/03/05 06:25:44;;;;;;;58.72;20.63;;;-1.90;99.90;;;;;;5032925;28;20049;-83
2022/03/05 06:28:10;;;;;;;62.50;20.27;;;-1.90;99.90;;;;;;5031780;28;20398;-83
2022/03/05 06:30:36;;;;;;;63.22;19.95;;;-1.90;99.90;;;;;;5030588;28;20026;-83
2022/03/05 06:33:01;;;;;;;69.43;21.95;;;-1.80;99.90;;;;;;5033248;28;20104;-83
2022/03/05 06:35:27;;;;;;;64.68;20.80;;;-1.80;99.90;;;;;;5033289;28;20036;-84
2022/03/05 06:37:52;;;;;;;55.08;18.10;;;-1.80;99.90;;;;;;5028287;28;20024;-83
2022/03/05 06:40:18;;;;;;;60.20;20.83;;;-1.80;99.90;;;;;;5015013;28;20037;-83
2022/03/05 06:42:45;;;;;;;65.97;18.08;;;-1.80;99.90;;;;;;5026635;28;20398;-82
2022/03/05 06:45:11;;;;;;;58.72;19.50;;;-1.80;99.90;;;;;;5031659;28;20080;-82
2022/03/05 06:47:40;;;;;;;64.95;19.67;;;-1.80;99.90;;;;;;5033245;28;20108;-81
2022/03/05 06:50:07;;;;;;;57.55;19.27;;;-1.80;99.90;;;;;;5022957;28;20042;-81
2022/03/05 06:52:33;;;;;;;63.85;21.63;;;-1.70;99.90;;;;;;5032383;28;20067;-82
2022/03/05 06:54:59;;;;;;;57.60;17.95;;;-1.70;99.90;;;;;;5030991;28;20485;-82
2022/03/05 06:57:25;;;;;;;65.22;20.33;;;-1.60;99.90;;;;;;5031516;28;20375;-82
2022/03/05 06:59:51;;;;;;;60.53;20.20;;;-1.60;99.90;;;;;;5034083;28;20033;-82
2022/03/05 07:02:16;;;;;;;62.65;19.83;;;-1.60;99.90;;;;;;5034530;28;20025;-82
2022/03/05 07:04:42;;;;;;;60.78;20.65;;;-1.50;99.90;;;;;;5030720;28;20033;-82
2022/03/05 07:07:08;;;;;;;63.65;20.02;;;-1.50;99.90;;;;;;5024946;28;20057;-82
2022/03/05 07:09:33;;;;;;;66.78;19.58;;;-1.50;99.90;;;;;;5030884;28;20033;-83
2022/03/05 07:11:59;;;;;;;57.22;19.70;;;-1.40;99.90;;;;;;5031020;28;20029;-83
2022/03/05 07:14:25;;;;;;;57.45;19.10;;;-1.30;99.90;;;;;;5024108;28;20037;-83
2022/03/05 07:16:50;;;;;;;53.58;18.67;;;-1.30;99.90;;;;;;5029503;28;20473;-83
2022/03/05 07:19:16;;;;;;;58.80;19.05;;;-1.20;99.90;;;;;;5032270;28;20026;-83
2022/03/05 07:21:42;;;;;;;65.93;19.92;;;-1.10;99.90;;;;;;5033880;28;20143;-84
2022/03/05 07:24:08;;;;;;;61.30;20.70;;;-1.10;99.90;;;;;;5032683;28;20139;-84
2022/03/05 07:26:34;;;;;;;59.83;20.63;;;-1.00;99.90;;;;;;5033840;28;20033;-84
2022/03/05 07:29:00;;;;;;;64.40;19.77;;;-0.90;99.90;;;;;;5032293;28;20041;-83
2022/03/05 07:31:26;;;;;;;70.10;20.27;;;-0.90;99.90;;;;;;5028565;28;20069;-83
2022/03/05 07:33:51;;;;;;;60.65;20.75;;;-0.80;99.90;;;;;;5028441;28;20025;-84
2022/03/05 07:36:17;;;;;;;60.30;19.77;;;-0.70;99.90;;;;;;5022892;28;20076;-84
2022/03/05 07:38:44;;;;;;;68.38;22.13;;;-0.60;99.90;;;;;;5027919;28;20037;-84
2022/03/05 07:41:10;;;;;;;60.75;20.60;;;-0.60;99.90;;;;;;5027709;28;20034;-84
2022/03/05 07:43:36;;;;;;;61.00;20.45;;;-0.50;99.90;;;;;;5015584;28;20048;-83
2022/03/05 07:46:02;;;;;;;65.43;22.27;;;-0.40;99.90;;;;;;5027246;28;20033;-83
2022/03/05 07:48:28;;;;;;;58.88;20.77;;;-0.30;99.90;;;;;;5020518;28;20030;-83
2022/03/05 07:50:54;;;;;;;62.42;21.52;;;-0.30;99.90;;;;;;5029318;28;20040;-84
2022/03/05 07:53:19;;;;;;;65.28;19.75;;;-0.20;99.90;;;;;;5024927;28;20402;-83
2022/03/05 07:55:46;;;;;;;55.83;19.20;;;0.00;99.90;;;;;;5028211;28;20034;-82
2022/03/05 07:58:12;;;;;;;61.67;20.75;;;0.00;99.90;;;;;;5019378;28;20029;-83
2022/03/05 08:00:37;;;;;;;58.33;20.25;;;0.10;99.90;;;;;;5029582;28;20041;-85
2022/03/05 08:03:03;;;;;;;54.97;21.13;;;0.20;99.90;;;;;;5030608;28;20100;-83
2022/03/05 08:05:29;;;;;;;51.95;18.75;;;0.20;99.90;;;;;;5024493;28;20037;-82
2022/03/05 08:07:55;;;;;;;59.08;19.33;;;0.40;99.90;;;;;;5030373;28;20033;-82
2022/03/05 08:10:21;;;;;;;57.42;18.95;;;0.40;99.90;;;;;;5027467;28;21080;-85
2022/03/05 08:12:47;;;;;;;61.22;21.05;;;0.50;99.90;;;;;;5032749;28;20056;-85
2022/03/05 08:15:13;;;;;;;63.58;21.38;;;0.60;99.90;;;;;;5022813;28;20064;-84
2022/03/05 08:17:53;;;;;;;62.95;21.80;;;0.70;99.90;;;;;;5023949;28;20083;-83
2022/03/05 08:20:19;;;;;;;54.25;18.60;;;0.80;99.90;;;;;;5032627;28;20095;-84
2022/03/05 08:22:45;;;;;;;62.40;20.77;;;1.00;99.90;;;;;;5035705;28;20061;-84
2022/03/05 08:25:12;;;;;;;55.95;20.23;;;1.10;99.90;;;;;;5026788;28;20041;-84
2022/03/05 08:27:38;;;;;;;60.55;21.73;;;1.20;99.90;;;;;;5032349;28;20026;-85
2022/03/05 08:30:04;;;;;;;59.72;19.40;;;1.30;99.90;;;;;;5036456;28;20052;-85
2022/03/05 08:32:30;;;;;;;56.53;19.85;;;1.40;99.90;;;;;;5035158;28;20087;-85
2022/03/05 08:34:55;;;;;;;65.38;21.40;;;1.50;99.90;;;;;;5024769;28;20482;-85
2022/03/05 08:37:21;;;;;;;59.83;20.25;;;1.60;99.90;;;;;;5033205;28;20438;-84
2022/03/05 08:39:47;;;;;;;54.58;21.40;;;1.70;99.90;;;;;;5033370;28;20048;-83
2022/03/05 08:42:12;;;;;;;56.13;18.98;;;1.80;99.90;;;;;;5032055;28;20029;-84
2022/03/05 08:44:38;;;;;;;52.33;19.15;;;2.00;99.90;;;;;;5033574;28;20045;-85
2022/03/05 08:47:04;;;;;;;50.80;17.38;;;2.00;99.90;;;;;;5032804;28;20389;-85
2022/03/05 08:49:29;;;;;;;54.92;20.50;;;2.10;99.90;;;;;;5033277;28;20040;-83
2022/03/05 08:51:55;;;;;;;57.22;20.38;;;2.20;99.90;;;;;;5034218;28;20038;-85
2022/03/05 08:54:20;;;;;;;56.45;21.70;;;2.30;99.90;;;;;;5028458;28;20394;-84
2022/03/05 08:56:47;;;;;;;61.28;22.80;;;2.30;99.90;;;;;;5034135;28;20025;-84
2022/03/05 08:59:12;;;;;;;55.65;20.60;;;2.40;99.90;;;;;;5030930;28;20496;-85
2022/03/05 09:01:38;;;;;;;52.35;19.33;;;2.50;99.90;;;;;;5031143;28;20108;-86
2022/03/05 09:04:04;;;;;;;55.60;21.13;;;2.60;99.90;;;;;;5035097;28;20472;-84
2022/03/05 09:06:30;;;;;;;52.65;21.30;;;2.70;99.90;;;;;;5034687;28;20033;-84
2022/03/05 09:08:57;;;;;;;47.88;18.83;;;2.70;99.90;;;;;;5032307;28;20041;-83
2022/03/05 09:11:22;;;;;;;49.38;19.45;;;2.80;99.90;;;;;;5020401;28;20024;-84
2022/03/05 09:13:48;;;;;;;55.70;20.92;;;2.90;99.90;;;;;;5027883;28;20367;-83
2022/03/05 09:16:14;;;;;;;56.25;20.48;;;3.00;99.90;;;;;;5033906;28;20083;-82
2022/03/05 09:18:39;;;;;;;50.58;19.35;;;3.00;99.90;;;;;;5030590;28;20029;-82
2022/03/05 09:21:05;;;;;;;54.00;20.00;;;3.10;99.90;;;;;;5028818;28;20061;-81
2022/03/05 09:23:30;;;;;;;55.25;21.23;;;3.20;99.90;;;;;;5031633;28;20684;-83
2022/03/05 09:25:56;;;;;;;55.42;21.38;;;3.30;99.90;;;;;;5033335;28;20030;-83
2022/03/05 09:28:21;;;;;;;54.28;20.77;;;3.40;99.90;;;;;;5030508;28;20347;-82
2022/03/05 09:30:47;;;;;;;54.85;21.77;;;3.50;99.90;;;;;;5031011;28;20024;-83
2022/03/05 09:33:13;;;;;;;56.70;21.10;;;3.60;99.90;;;;;;5034030;28;20490;-83
2022/03/05 09:35:38;;;;;;;54.60;21.45;;;3.60;99.90;;;;;;5020331;28;20112;-82
2022/03/05 09:38:04;;;;;;;59.42;22.33;;;3.70;99.90;;;;;;5031732;28;20434;-83
2022/03/05 09:40:30;;;;;;;53.20;21.85;;;3.80;99.90;;;;;;5032596;28;20031;-85
2022/03/05 09:42:55;;;;;;;49.95;20.33;;;3.80;99.90;;;;;;5032620;28;20033;-85
2022/03/05 09:45:21;;;;;;;57.10;21.85;;;3.90;99.90;;;;;;5033683;28;20049;-85
2022/03/05 09:47:47;;;;;;;49.55;19.92;;;3.90;99.90;;;;;;5032189;28;20024;-83
2022/03/05 09:50:13;;;;;;;51.05;20.45;;;4.10;99.90;;;;;;5029075;28;20033;-83
2022/03/05 09:52:39;;;;;;;53.00;20.10;;;4.10;99.90;;;;;;5032256;28;20027;-85
2022/03/05 09:55:06;;;;;;;49.42;20.88;;;4.20;99.90;;;;;;5025909;28;20416;-84
2022/03/05 09:57:31;;;;;;;52.33;20.35;;;4.40;99.90;;;;;;5028453;28;20428;-84
2022/03/05 09:59:57;;;;;;;52.58;21.63;;;4.40;99.90;;;;;;5024581;28;20029;-85
2022/03/05 10:02:22;;;;;;;48.15;20.27;;;4.50;99.90;;;;;;5020441;28;20030;-84
2022/03/05 10:04:48;;;;;;;50.72;21.05;;;4.50;99.90;;;;;;5014449;28;20072;-86
2022/03/05 10:07:17;;;;;;;55.58;21.88;;;4.60;99.90;;;;;;5030504;28;20378;-84
2022/03/05 10:09:47;;;;;;;51.50;20.58;;;4.70;99.90;;;;;;5026893;28;20048;-84
2022/03/05 10:12:31;;;;;;;53.33;21.77;;;4.70;99.90;;;;;;5031135;28;20074;-83
2022/03/05 10:15:15;;;;;;;50.63;20.35;;;4.80;99.90;;;;;;5028052;28;20030;-85
2022/03/05 10:17:56;;;;;;;46.88;19.63;;;4.90;99.90;;;;;;5025640;28;20493;-84
2022/03/05 10:20:25;;;;;;;46.30;18.73;;;4.90;99.90;;;;;;5031485;28;20026;-84
2022/03/05 10:23:21;;;;;;;51.00;20.30;;;5.00;99.90;;;;;;5032834;28;20520;-84
2022/03/05 10:25:49;;;;;;;59.30;23.27;;;5.00;99.90;;;;;;5019982;28;20046;-84
2022/03/05 10:28:18;;;;;;;53.15;21.38;;;5.10;99.90;;;;;;5031894;28;20021;-84
2022/03/05 10:30:45;;;;;;;49.17;20.60;;;5.10;99.90;;;;;;5021655;28;20038;-84
2022/03/05 10:33:30;;;;;;;46.58;19.52;;;5.10;99.90;;;;;;5027774;28;20063;-84
2022/03/05 10:35:58;;;;;;;48.95;20.75;;;5.20;99.90;;;;;;5031653;28;20029;-84
2022/03/05 10:38:50;;;;;;;48.05;20.58;;;5.30;99.90;;;;;;5033372;28;20083;-85
2022/03/05 10:41:19;;;;;;;43.75;19.63;;;5.40;99.90;;;;;;5031613;28;20030;-83
2022/03/05 10:44:02;;;;;;;53.08;20.83;;;5.40;99.90;;;;;;5031105;28;20772;-83
2022/03/05 10:46:47;;;;;;;50.05;21.50;;;5.40;99.90;;;;;;5030738;28;20068;-84
2022/03/05 10:49:18;;;;;;;49.05;21.25;;;5.40;99.90;;;;;;5021619;28;20029;-83
2022/03/05 10:51:52;;;;;;;50.50;21.27;;;5.40;99.90;;;;;;5032236;28;20095;-82
2022/03/05 10:54:48;;;;;;;48.47;21.10;;;5.40;99.90;;;;;;5032289;28;20029;-86
2022/03/05 10:57:15;;;;;;;51.17;20.98;;;5.40;99.90;;;;;;5029851;28;20064;-87
2022/03/05 10:59:45;;;;;;;55.08;22.88;;;5.40;99.90;;;;;;5030649;28;20022;-86
2022/03/05 11:02:13;;;;;;;50.67;21.80;;;5.40;99.90;;;;;;5028466;28;20057;-85
2022/03/05 11:04:39;;;;;;;48.60;20.38;;;5.50;99.90;;;;;;5029315;28;20116;-86
2022/03/05 11:07:07;;;;;;;51.55;21.15;;;5.60;99.90;;;;;;5028219;28;20071;-86
2022/03/05 11:09:35;;;;;;;51.90;21.83;;;5.70;99.90;;;;;;5032088;28;20025;-86
2022/03/05 11:12:02;;;;;;;49.80;21.20;;;5.70;99.90;;;;;;5022841;28;20026;-85
2022/03/05 11:14:28;;;;;;;52.92;22.52;;;5.80;99.90;;;;;;5025671;28;20101;-86
2022/03/05 11:16:55;;;;;;;48.72;20.65;;;5.80;99.90;;;;;;5028854;28;20352;-86
2022/03/05 11:19:25;;;;;;;48.25;20.73;;;5.90;99.90;;;;;;5032315;28;20076;-86
2022/03/05 11:21:51;;;;;;;51.88;21.92;;;5.90;99.90;;;;;;5030755;28;20045;-86
2022/03/05 11:24:19;;;;;;;53.55;21.58;;;5.90;99.90;;;;;;5025458;28;20076;-85
2022/03/05 11:26:50;;;;;;;46.60;20.70;;;5.90;99.90;;;;;;5030850;28;20037;-85
2022/03/05 11:29:20;;;;;;;50.10;21.13;;;5.90;99.90;;;;;;5033531;28;20120;-86
2022/03/05 11:31:47;;;;;;;44.10;20.17;;;6.00;99.90;;;;;;5031226;28;20029;-85
2022/03/05 11:34:18;;;;;;;47.60;19.58;;;6.00;99.80;;;;;;5031353;28;20040;-85
2022/03/05 11:36:45;;;;;;;48.17;21.90;;;6.10;99.60;;;;;;5016397;28;20509;-85
2022/03/05 11:39:12;;;;;;;51.08;22.67;;;6.10;99.30;;;;;;5023055;28;20026;-87
2022/03/05 11:41:54;;;;;;;47.97;21.15;;;6.20;99.60;;;;;;5036278;28;20075;-86
2022/03/05 11:44:23;;;;;;;49.70;21.83;;;6.30;99.50;;;;;;5035665;28;20112;-86
2022/03/05 11:46:49;;;;;;;42.05;19.38;;;6.40;99.50;;;;;;5029622;28;20025;-87
2022/03/05 11:49:16;;;;;;;49.67;21.70;;;6.50;99.30;;;;;;5030749;28;20061;-86
2022/03/05 11:51:53;;;;;;;48.97;21.63;;;6.50;98.60;;;;;;5032535;28;20021;-88
2022/03/05 11:54:19;;;;;;;51.83;22.05;;;6.50;98.50;;;;;;5030374;28;20021;-84
2022/03/05 11:57:03;;;;;;;51.85;20.92;;;6.50;97.80;;;;;;5034851;28;20480;-85
2022/03/05 11:59:34;;;;;;;49.78;21.70;;;6.50;98.00;;;;;;5029236;28;20032;-86
2022/03/05 12:02:00;;;;;;;47.80;20.80;;;6.50;97.80;;;;;;5026300;28;20032;-89
2022/03/05 12:04:30;;;;;;;54.20;22.75;;;6.60;97.70;;;;;;5021974;28;20045;-86
2022/03/05 12:07:04;;;;;;;52.03;22.98;;;6.60;97.20;;;;;;5024382;28;20040;-86
2022/03/05 12:09:53;;;;;;;45.13;20.65;;;6.70;97.20;;;;;;5028988;28;20078;-87
2022/03/05 12:12:19;;;;;;;42.95;19.63;;;6.70;97.30;;;;;;5027310;28;20071;-86
2022/03/05 12:15:09;;;;;;;49.75;21.17;;;6.80;97.30;;;;;;5024296;28;20138;-86
2022/03/05 12:17:40;;;;;;;45.58;20.80;;;6.80;96.70;;;;;;5026853;28;20025;-86
2022/03/05 12:20:16;;;;;;;43.40;21.23;;;6.90;96.60;;;;;;5021102;28;20033;-87
2022/03/05 12:22:50;;;;;;;51.22;21.50;;;7.00;96.40;;;;;;5040235;28;20049;-86
2022/03/05 12:25:19;;;;;;;43.20;20.10;;;7.00;96.70;;;;;;5041524;28;20120;-86
2022/03/05 12:27:46;;;;;;;46.78;21.02;;;7.20;96.10;;;;;;5021615;28;20167;-87
2022/03/05 12:30:13;;;;;;;49.22;21.67;;;7.10;95.70;;;;;;5026348;28;20041;-87
2022/03/05 12:32:41;;;;;;;47.25;20.92;;;7.20;96.00;;;;;;5024387;28;20160;-87